Time;durP1;ratioP1;P1;durP2;ratioP2;P2;SDS_P1;SDS_P2;PMS_P1;PMS_P2;Temp;Humidity;BMP_temperature;BMP_pressure;BME280_temperature;BME280_humidity;BME280_pressure;Samples;Min_cycle;Max_cycle;Signal;HPM_P1;HPM_P2
2021/12/19 00:00:13;;;;;;;72.43;30.17;;;;;;;;;;6219562;28;20045;-66
2021/12/19 00:03:34;;;;;;;65.88;33.55;;;;;;;;;;6216984;28;20537;-65
2021/12/19 00:09:55;;;;;;;76.18;32.13;;;;;;;;;;6225597;28;20065;-65
2021/12/19 00:12:58;;;;;;;67.05;31.92;;;;;;;;;;6212158;28;20529;-66
2021/12/19 00:16:00;;;;;;;67.95;31.83;;;;;;;;;;6215132;28;20100;-65
2021/12/19 00:19:04;;;;;;;68.30;31.00;;;;;;;;;;6226728;28;20131;-65
2021/12/19 00:22:05;;;;;;;62.55;30.70;;;;;;;;;;6218959;28;21490;-65
2021/12/19 00:25:07;;;;;;;64.43;30.92;;;;;;;;;;6239191;28;20177;-65
2021/12/19 00:28:09;;;;;;;68.07;32.00;;;;;;;;;;6230156;28;20120;-65
2021/12/19 00:31:12;;;;;;;77.45;35.78;;;;;;;;;;6217310;28;20456;-66
2021/12/19 00:34:16;;;;;;;86.32;40.47;;;;;;;;;;6226390;28;20128;-66
2021/12/19 00:37:19;;;;;;;72.22;33.58;;;;;;;;;;6225934;28;20050;-65
2021/12/19 00:40:21;;;;;;;64.07;31.15;;;;;;;;;;6226713;28;20037;-66
2021/12/19 00:43:32;;;;;;;61.42;30.42;;;;;;;;;;6239564;28;20128;-66
2021/12/19 00:46:42;;;;;;;65.85;30.90;;;;;;;;;;6224358;28;20052;-65
2021/12/19 00:49:45;;;;;;;59.17;29.38;;;;;;;;;;6234963;28;20546;-65
2021/12/19 00:52:47;;;;;;;61.50;30.35;;;;;;;;;;6227389;28;20049;-66
2021/12/19 00:55:48;;;;;;;56.85;30.17;;;;;;;;;;6237671;28;20072;-65
2021/12/19 00:58:50;;;;;;;60.22;29.20;;;;;;;;;;6231423;28;20053;-65
2021/12/19 01:01:52;;;;;;;58.17;29.35;;;;;;;;;;6209200;28;20053;-66
2021/12/19 01:04:55;;;;;;;62.38;31.23;;;;;;;;;;6243275;28;20416;-65
2021/12/19 01:07:57;;;;;;;56.72;29.45;;;;;;;;;;6216406;28;20207;-65
2021/12/19 01:10:58;;;;;;;55.78;29.63;;;;;;;;;;6210014;28;20077;-65
2021/12/19 01:14:02;;;;;;;55.70;29.85;;;;;;;;;;6224892;28;20048;-65
2021/12/19 01:17:04;;;;;;;54.90;29.52;;;;;;;;;;6215620;28;20400;-65
2021/12/19 01:20:11;;;;;;;53.97;29.60;;;;;;;;;;6228315;28;20041;-65
2021/12/19 01:23:13;;;;;;;51.20;29.20;;;;;;;;;;6227731;28;20068;-65
2021/12/19 01:26:15;;;;;;;61.22;31.77;;;;;;;;;;6219485;28;20049;-65
2021/12/19 01:29:16;;;;;;;55.65;29.00;;;;;;;;;;6220510;28;20164;-65
2021/12/19 01:32:18;;;;;;;59.63;29.27;;;;;;;;;;6206358;28;20140;-66
2021/12/19 01:35:23;;;;;;;59.88;29.60;;;;;;;;;;6215759;28;21908;-65
2021/12/19 01:38:25;;;;;;;56.80;28.77;;;;;;;;;;6223577;28;20049;-65
2021/12/19 01:41:27;;;;;;;54.30;27.73;;;;;;;;;;6215152;28;20157;-65
2021/12/19 01:44:28;;;;;;;55.72;28.17;;;;;;;;;;6223608;28;20093;-65
2021/12/19 01:47:30;;;;;;;46.88;27.08;;;;;;;;;;6205584;28;20145;-65
2021/12/19 01:50:33;;;;;;;52.15;27.35;;;;;;;;;;6211124;28;20046;-65
2021/12/19 01:53:35;;;;;;;52.35;28.50;;;;;;;;;;6240308;28;20046;-65
2021/12/19 01:56:36;;;;;;;48.35;26.33;;;;;;;;;;6227169;28;20132;-65
2021/12/19 01:59:38;;;;;;;49.97;27.08;;;;;;;;;;6225202;28;20055;-65
2021/12/19 02:02:39;;;;;;;48.63;27.50;;;;;;;;;;6210799;28;20095;-65
2021/12/19 02:05:43;;;;;;;47.78;27.13;;;;;;;;;;6215841;28;20038;-65
2021/12/19 02:08:45;;;;;;;52.30;26.90;;;;;;;;;;6222372;28;20046;-65
2021/12/19 02:11:46;;;;;;;44.67;25.45;;;;;;;;;;6218531;28;20060;-65
2021/12/19 02:14:49;;;;;;;52.08;26.27;;;;;;;;;;6231347;28;20049;-65
2021/12/19 02:17:54;;;;;;;49.10;26.52;;;;;;;;;;6221325;28;20187;-65
2021/12/19 02:20:59;;;;;;;44.83;25.15;;;;;;;;;;6232132;28;20051;-65
2021/12/19 02:24:03;;;;;;;49.08;26.25;;;;;;;;;;6243437;28;20046;-65
2021/12/19 02:27:05;;;;;;;46.85;27.02;;;;;;;;;;6235261;28;20179;-65
2021/12/19 02:30:08;;;;;;;49.78;27.92;;;;;;;;;;6243439;28;20059;-65
2021/12/19 02:33:13;;;;;;;49.00;27.70;;;;;;;;;;6210359;28;20049;-65
2021/12/19 02:36:26;;;;;;;51.30;27.05;;;;;;;;;;6216509;28;20041;-65
2021/12/19 02:39:52;;;;;;;49.97;26.45;;;;;;;;;;6226741;28;20045;-65
2021/12/19 02:49:43;;;;;;;47.15;26.35;;;;;;;;;;6233865;28;20425;-65
2021/12/19 02:52:46;;;;;;;55.38;28.58;;;;;;;;;;6213944;28;20180;-65
2021/12/19 02:55:48;;;;;;;49.38;26.25;;;;;;;;;;6219668;28;20195;-65
2021/12/19 02:58:49;;;;;;;47.67;26.55;;;;;;;;;;6238901;28;20583;-65
2021/12/19 03:01:52;;;;;;;49.78;27.35;;;;;;;;;;6215408;28;20107;-65
2021/12/19 03:04:54;;;;;;;51.25;26.55;;;;;;;;;;6228423;28;20091;-65
2021/12/19 03:07:57;;;;;;;48.63;26.17;;;;;;;;;;6237943;28;20038;-65
2021/12/19 03:20:53;;;;;;;51.10;26.88;;;;;;;;;;6219181;28;20183;-65
2021/12/19 03:23:56;;;;;;;50.10;27.38;;;;;;;;;;6224884;28;20128;-65
2021/12/19 03:26:57;;;;;;;52.72;29.10;;;;;;;;;;6215783;28;20201;-65
2021/12/19 03:29:59;;;;;;;62.35;30.52;;;;;;;;;;6236547;28;20664;-65
2021/12/19 03:33:01;;;;;;;63.15;30.40;;;;;;;;;;6206450;28;20042;-65
2021/12/19 03:36:04;;;;;;;67.13;31.20;;;;;;;;;;6219263;28;20042;-65
2021/12/19 03:39:14;;;;;;;65.85;32.25;;;;;;;;;;6222871;28;20116;-65
2021/12/19 03:42:15;;;;;;;69.05;31.73;;;;;;;;;;6214253;28;20164;-65
2021/12/19 03:45:19;;;;;;;62.13;31.33;;;;;;;;;;6218605;28;20160;-65
2021/12/19 03:48:21;;;;;;;63.77;32.40;;;;;;;;;;6218747;28;20053;-66
2021/12/19 03:51:22;;;;;;;63.85;32.85;;;;;;;;;;6214208;28;20077;-65
2021/12/19 03:54:25;;;;;;;65.22;33.88;;;;;;;;;;6227171;28;20048;-65
2021/12/19 03:57:27;;;;;;;69.47;34.45;;;;;;;;;;6226415;28;20041;-65
2021/12/19 04:00:29;;;;;;;65.20;32.55;;;;;;;;;;6211995;28;20054;-65
2021/12/19 04:03:31;;;;;;;67.47;34.58;;;;;;;;;;6216253;28;20080;-65
2021/12/19 04:06:32;;;;;;;62.13;31.30;;;;;;;;;;6209575;28;20050;-65
2021/12/19 04:09:35;;;;;;;58.55;32.42;;;;;;;;;;6230429;28;20186;-65
2021/12/19 04:12:37;;;;;;;64.07;33.55;;;;;;;;;;6214392;28;20111;-65
2021/12/19 04:15:39;;;;;;;66.40;32.13;;;;;;;;;;6213231;28;20845;-65
2021/12/19 04:18:40;;;;;;;63.30;32.40;;;;;;;;;;6219439;28;20702;-65
2021/12/19 04:21:42;;;;;;;59.83;32.22;;;;;;;;;;6215933;28;20046;-65
2021/12/19 04:24:45;;;;;;;56.00;30.92;;;;;;;;;;6225854;28;20050;-65
2021/12/19 04:27:47;;;;;;;59.75;31.63;;;;;;;;;;6221244;28;20191;-65
2021/12/19 04:30:49;;;;;;;62.53;32.22;;;;;;;;;;6217446;28;20234;-65
2021/12/19 04:33:51;;;;;;;62.10;32.75;;;;;;;;;;6220404;28;20108;-65
2021/12/19 04:36:58;;;;;;;64.20;31.48;;;;;;;;;;6215312;28;20050;-65
2021/12/19 04:40:08;;;;;;;59.13;32.13;;;;;;;;;;6223035;28;20398;-65
2021/12/19 04:53:31;;;;;;;55.38;29.77;;;;;;;;;;6217964;28;20073;-65
2021/12/19 04:56:45;;;;;;;55.25;28.73;;;;;;;;;;6215173;28;20132;-65
2021/12/19 04:59:54;;;;;;;58.65;31.20;;;;;;;;;;6241397;28;20041;-65
2021/12/19 05:03:00;;;;;;;59.55;29.75;;;;;;;;;;6208147;28;20062;-65
2021/12/19 05:06:08;;;;;;;59.75;31.05;;;;;;;;;;6214738;28;20180;-65
2021/12/19 05:15:52;;;;;;;65.40;30.63;;;;;;;;;;6210657;28;20896;-65
2021/12/19 05:19:01;;;;;;;62.65;33.63;;;;;;;;;;6220014;28;20052;-65
2021/12/19 05:22:03;;;;;;;65.35;32.60;;;;;;;;;;6211584;28;20160;-65
2021/12/19 05:25:14;;;;;;;60.28;31.25;;;;;;;;;;6219648;28;20069;-64
2021/12/19 05:28:17;;;;;;;59.13;28.83;;;;;;;;;;6218715;28;20053;-66
2021/12/19 05:31:19;;;;;;;56.65;28.05;;;;;;;;;;6208867;28;21433;-65
2021/12/19 05:34:20;;;;;;;64.57;30.95;;;;;;;;;;6218283;28;20067;-65
2021/12/19 05:45:12;;;;;;;64.13;29.75;;;;;;;;;;6224666;28;20693;-65
2021/12/19 05:47:38;;;;;;;68.15;29.33;;;;;;;;;;6206308;28;20046;-65
2021/12/19 05:50:40;;;;;;;53.00;27.63;;;;;;;;;;6208581;28;20416;-65
2021/12/19 05:53:41;;;;;;;53.63;27.25;;;;;;;;;;6221008;28;20053;-65
2021/12/19 05:56:44;;;;;;;56.85;28.08;;;;;;;;;;6215631;28;20493;-65
2021/12/19 05:59:47;;;;;;;54.65;26.75;;;;;;;;;;6228265;28;20251;-65
2021/12/19 06:02:49;;;;;;;53.92;27.38;;;;;;;;;;6215725;28;20136;-65
2021/12/19 06:05:50;;;;;;;47.35;25.23;;;;;;;;;;6211822;28;21410;-65
2021/12/19 06:08:52;;;;;;;50.78;27.33;;;;;;;;;;6221722;28;20049;-65
2021/12/19 06:11:53;;;;;;;47.97;25.77;;;;;;;;;;6215443;28;20069;-65
2021/12/19 06:14:56;;;;;;;47.40;24.48;;;;;;;;;;6226470;28;20504;-65
2021/12/19 06:17:58;;;;;;;50.58;25.88;;;;;;;;;;6215072;28;20135;-65
2021/12/19 06:20:59;;;;;;;46.00;25.10;;;;;;;;;;6219339;28;20514;-65
2021/12/19 06:24:01;;;;;;;45.78;24.95;;;;;;;;;;6233746;28;20176;-65
2021/12/19 06:27:03;;;;;;;47.28;25.25;;;;;;;;;;6240495;28;20083;-65
2021/12/19 06:30:08;;;;;;;47.80;25.83;;;;;;;;;;6246406;28;20054;-65
2021/12/19 06:33:10;;;;;;;47.72;24.88;;;;;;;;;;6238474;28;20050;-65
2021/12/19 06:36:12;;;;;;;48.05;25.70;;;;;;;;;;6241956;28;20048;-65
2021/12/19 06:39:13;;;;;;;44.53;24.00;;;;;;;;;;6251345;28;20037;-65
2021/12/19 06:42:15;;;;;;;52.60;25.75;;;;;;;;;;6229525;28;20041;-65
2021/12/19 06:45:20;;;;;;;46.42;25.65;;;;;;;;;;6216316;28;20053;-65
2021/12/19 06:48:22;;;;;;;49.83;25.08;;;;;;;;;;6217119;28;20465;-65
2021/12/19 06:51:24;;;;;;;49.55;25.95;;;;;;;;;;6218950;28;23415;-65
2021/12/19 06:54:26;;;;;;;49.10;26.20;;;;;;;;;;6228912;28;20099;-65
2021/12/19 06:57:28;;;;;;;46.15;24.77;;;;;;;;;;6223813;28;20106;-65
2021/12/19 07:00:31;;;;;;;51.45;26.13;;;;;;;;;;6219288;28;20037;-65
2021/12/19 07:03:32;;;;;;;48.08;25.10;;;;;;;;;;6223403;28;20510;-65
2021/12/19 07:06:34;;;;;;;49.80;25.25;;;;;;;;;;6223056;28;20057;-66
2021/12/19 07:09:35;;;;;;;52.90;26.17;;;;;;;;;;6230016;28;20061;-65
2021/12/19 07:12:37;;;;;;;47.63;26.10;;;;;;;;;;6217995;28;20041;-65
2021/12/19 07:15:40;;;;;;;54.20;26.65;;;;;;;;;;6215627;28;20054;-65
2021/12/19 07:18:42;;;;;;;46.60;25.30;;;;;;;;;;6220640;28;20049;-65
2021/12/19 07:21:44;;;;;;;49.80;26.25;;;;;;;;;;6224721;28;20049;-65
2021/12/19 07:24:46;;;;;;;53.60;26.75;;;;;;;;;;6227690;28;20050;-65
2021/12/19 07:27:48;;;;;;;48.28;26.60;;;;;;;;;;6228366;28;20041;-65
2021/12/19 07:30:51;;;;;;;50.95;25.58;;;;;;;;;;6217106;28;20867;-65
2021/12/19 07:33:53;;;;;;;49.08;25.23;;;;;;;;;;6225956;28;20042;-65
2021/12/19 07:36:54;;;;;;;52.85;26.63;;;;;;;;;;6219817;28;20552;-66
2021/12/19 07:40:03;;;;;;;43.50;25.10;;;;;;;;;;6225742;28;20045;-66
2021/12/19 07:43:05;;;;;;;46.83;24.92;;;;;;;;;;6224090;28;20079;-66
2021/12/19 07:46:08;;;;;;;48.03;26.17;;;;;;;;;;6222313;28;20094;-66
2021/12/19 07:49:10;;;;;;;47.97;24.95;;;;;;;;;;6224897;28;20046;-66
2021/12/19 07:52:11;;;;;;;53.42;27.42;;;;;;;;;;6217306;28;20058;-66
2021/12/19 07:55:13;;;;;;;52.47;26.63;;;;;;;;;;6227849;28;20045;-65
2021/12/19 07:58:14;;;;;;;52.67;26.80;;;;;;;;;;6230108;28;20185;-67
2021/12/19 08:01:17;;;;;;;55.13;28.45;;;;;;;;;;6213953;28;20147;-66
2021/12/19 08:04:19;;;;;;;53.33;27.17;;;;;;;;;;6223039;28;20138;-66
2021/12/19 08:07:23;;;;;;;51.13;26.42;;;;;;;;;;6216997;28;20111;-66
2021/12/19 08:13:44;;;;;;;52.92;26.98;;;;;;;;;;6231953;28;20474;-66
2021/12/19 08:16:47;;;;;;;45.47;26.17;;;;;;;;;;6211619;28;20069;-66
2021/12/19 08:19:49;;;;;;;44.78;24.65;;;;;;;;;;6220956;28;20050;-66
2021/12/19 08:22:51;;;;;;;40.50;23.63;;;;;;;;;;6213657;28;20127;-66
2021/12/19 08:25:53;;;;;;;39.92;22.88;;;;;;;;;;6215284;28;20049;-66
2021/12/19 08:28:55;;;;;;;42.42;24.40;;;;;;;;;;6226948;28;20053;-67
2021/12/19 08:31:57;;;;;;;37.08;22.38;;;;;;;;;;6213651;28;20052;-67
2021/12/19 08:34:59;;;;;;;38.05;23.67;;;;;;;;;;6223063;28;20061;-67
2021/12/19 08:38:01;;;;;;;40.95;23.55;;;;;;;;;;6217334;28;20143;-67
2021/12/19 08:41:03;;;;;;;39.45;24.05;;;;;;;;;;6217313;28;20363;-67
2021/12/19 08:44:05;;;;;;;38.08;23.25;;;;;;;;;;6230150;28;20486;-67
2021/12/19 08:47:08;;;;;;;36.53;22.67;;;;;;;;;;6207634;28;20060;-67
2021/12/19 08:50:10;;;;;;;37.47;21.83;;;;;;;;;;6221797;28;20049;-67
2021/12/19 08:53:12;;;;;;;33.38;21.30;;;;;;;;;;6219854;28;20049;-67
2021/12/19 08:56:14;;;;;;;34.55;21.52;;;;;;;;;;6220913;28;20061;-67
2021/12/19 08:59:15;;;;;;;35.53;22.50;;;;;;;;;;6228946;28;20053;-67
2021/12/19 09:02:18;;;;;;;33.50;21.63;;;;;;;;;;6210476;28;20064;-67
2021/12/19 09:05:21;;;;;;;31.98;21.65;;;;;;;;;;6217091;28;20049;-68
2021/12/19 09:08:22;;;;;;;35.22;21.67;;;;;;;;;;6226178;28;20050;-67
2021/12/19 09:11:24;;;;;;;35.40;22.58;;;;;;;;;;6213684;28;20117;-67
2021/12/19 09:14:26;;;;;;;32.33;21.08;;;;;;;;;;6229639;28;20057;-67
2021/12/19 09:17:29;;;;;;;32.72;21.52;;;;;;;;;;6204203;28;20145;-67
2021/12/19 09:20:30;;;;;;;39.80;22.60;;;;;;;;;;6217271;28;20600;-67
2021/12/19 09:23:33;;;;;;;35.60;23.33;;;;;;;;;;6228191;28;20167;-67
2021/12/19 09:26:35;;;;;;;32.28;22.60;;;;;;;;;;6219167;28;20068;-68
2021/12/19 09:29:37;;;;;;;32.92;21.63;;;;;;;;;;6226261;28;20493;-67
2021/12/19 09:32:40;;;;;;;32.22;21.42;;;;;;;;;;6210935;28;20060;-67
2021/12/19 09:35:42;;;;;;;32.22;22.73;;;;;;;;;;6217759;28;20139;-68
2021/12/19 09:38:48;;;;;;;30.45;21.20;;;;;;;;;;6224794;28;20136;-67
2021/12/19 09:41:53;;;;;;;31.02;21.63;;;;;;;;;;6215391;28;20056;-68
2021/12/19 09:44:55;;;;;;;32.00;22.35;;;;;;;;;;6227199;28;20128;-67
2021/12/19 09:47:58;;;;;;;32.08;21.40;;;;;;;;;;6202538;28;20103;-67
2021/12/19 09:51:00;;;;;;;29.80;21.10;;;;;;;;;;6213411;28;20141;-68
2021/12/19 09:54:01;;;;;;;27.35;20.17;;;;;;;;;;6224970;28;20557;-67
2021/12/19 09:57:03;;;;;;;30.20;22.23;;;;;;;;;;6219866;28;20137;-68
2021/12/19 10:00:06;;;;;;;28.73;22.33;;;;;;;;;;6231903;28;20053;-67
2021/12/19 10:03:12;;;;;;;30.08;22.67;;;;;;;;;;6215914;28;20139;-68
2021/12/19 10:06:19;;;;;;;31.15;21.88;;;;;;;;;;6214764;28;20058;-68
2021/12/19 10:09:21;;;;;;;31.63;23.15;;;;;;;;;;6224290;28;20373;-68
2021/12/19 10:12:48;;;;;;;30.38;22.85;;;;;;;;;;6214994;28;21749;-68
2021/12/19 10:15:50;;;;;;;31.50;21.92;;;;;;;;;;6213056;28;20038;-68
2021/12/19 10:18:54;;;;;;;28.77;22.20;;;;;;;;;;6224945;28;20127;-68
2021/12/19 10:21:55;;;;;;;29.95;22.67;;;;;;;;;;6229457;28;20131;-68
2021/12/19 10:24:58;;;;;;;28.30;22.17;;;;;;;;;;6226518;28;20068;-68
2021/12/19 10:28:04;;;;;;;28.85;22.48;;;;;;;;;;6228322;28;20485;-67
2021/12/19 10:31:05;;;;;;;30.92;22.65;;;;;;;;;;6211478;28;20038;-68
2021/12/19 10:34:22;;;;;;;31.48;22.77;;;;;;;;;;6230962;28;20125;-68
2021/12/19 10:37:32;;;;;;;30.05;22.67;;;;;;;;;;6227578;28;20136;-68
2021/12/19 10:40:34;;;;;;;32.30;23.17;;;;;;;;;;6237402;28;20054;-68
2021/12/19 10:43:43;;;;;;;26.17;20.23;;;;;;;;;;6237461;28;20111;-67
2021/12/19 10:46:44;;;;;;;27.00;19.35;;;;;;;;;;6212258;28;20068;-68
2021/12/19 10:49:47;;;;;;;25.50;20.15;;;;;;;;;;6226702;28;20485;-66
2021/12/19 10:52:49;;;;;;;25.67;19.00;;;;;;;;;;6210104;28;20091;-68
2021/12/19 10:55:51;;;;;;;23.05;18.38;;;;;;;;;;6230268;28;20552;-68
2021/12/19 10:58:56;;;;;;;24.90;18.88;;;;;;;;;;6239940;28;20986;-68
2021/12/19 11:01:58;;;;;;;25.17;18.50;;;;;;;;;;6212432;28;20051;-68
2021/12/19 11:05:01;;;;;;;26.48;20.63;;;;;;;;;;6222227;28;20524;-67
2021/12/19 11:08:04;;;;;;;27.35;20.27;;;;;;;;;;6215380;28;20183;-68
2021/12/19 11:11:05;;;;;;;29.25;21.83;;;;;;;;;;6212991;28;20578;-68
2021/12/19 11:14:08;;;;;;;30.38;22.58;;;;;;;;;;6226920;28;20187;-67
2021/12/19 11:17:11;;;;;;;34.67;24.13;;;;;;;;;;6215447;28;20057;-67
2021/12/19 11:20:15;;;;;;;31.97;22.93;;;;;;;;;;6217828;28;20069;-68
2021/12/19 11:23:17;;;;;;;31.25;24.13;;;;;;;;;;6223030;28;20067;-68
2021/12/19 11:26:20;;;;;;;38.55;24.60;;;;;;;;;;6217221;28;20456;-67
2021/12/19 11:29:22;;;;;;;33.17;25.27;;;;;;;;;;6231640;28;20497;-68
2021/12/19 11:32:32;;;;;;;34.20;24.85;;;;;;;;;;6209741;28;20144;-67
2021/12/19 11:35:38;;;;;;;37.25;25.63;;;;;;;;;;6214410;28;20403;-68
2021/12/19 11:38:40;;;;;;;34.83;26.17;;;;;;;;;;6227418;28;20137;-68
2021/12/19 11:42:03;;;;;;;34.08;24.80;;;;;;;;;;6219746;28;20132;-68
2021/12/19 11:45:28;;;;;;;31.00;24.60;;;;;;;;;;6227359;28;20052;-68
2021/12/19 11:48:32;;;;;;;35.45;25.05;;;;;;;;;;6224720;28;20379;-67
2021/12/19 11:51:35;;;;;;;34.50;25.45;;;;;;;;;;6219237;28;20168;-67
2021/12/19 11:54:37;;;;;;;34.55;23.48;;;;;;;;;;6231408;28;20099;-67
2021/12/19 11:57:38;;;;;;;;;;;;;;;;;;6221591;28;20053;-68
2021/12/19 12:00:43;;;;;;;36.78;25.10;;;;;;;;;;6229194;28;20055;-66
2021/12/19 12:03:50;;;;;;;33.40;24.50;;;;;;;;;;6228894;28;20656;-67
2021/12/19 12:06:58;;;;;;;31.75;23.98;;;;;;;;;;6221080;28;20075;-67
2021/12/19 12:09:59;;;;;;;39.72;25.70;;;;;;;;;;6232601;28;20050;-66
2021/12/19 12:13:01;;;;;;;37.28;27.13;;;;;;;;;;6228013;28;21424;-65
2021/12/19 12:16:42;;;;;;;40.95;25.83;;;;;;;;;;6213811;28;20244;-66
2021/12/19 12:19:47;;;;;;;35.85;25.02;;;;;;;;;;6229311;28;20049;-66
2021/12/19 12:22:59;;;;;;;37.20;24.70;;;;;;;;;;6221010;28;20049;-66
2021/12/19 12:26:23;;;;;;;38.88;24.35;;;;;;;;;;6228499;28;20053;-66
2021/12/19 12:29:25;;;;;;;34.08;22.88;;;;;;;;;;6248765;28;20119;-67
2021/12/19 12:32:27;;;;;;;35.35;21.95;;;;;;;;;;6224347;28;20380;-67
2021/12/19 12:35:31;;;;;;;33.65;21.00;;;;;;;;;;6222556;28;20045;-67
2021/12/19 12:38:35;;;;;;;32.63;21.33;;;;;;;;;;6230406;28;20048;-66
2021/12/19 12:41:51;;;;;;;36.53;22.10;;;;;;;;;;6224348;28;20497;-66
2021/12/19 12:45:02;;;;;;;34.38;22.00;;;;;;;;;;6230914;28;20141;-65
2021/12/19 12:48:04;;;;;;;31.55;22.10;;;;;;;;;;6218057;28;20076;-65
2021/12/19 12:51:08;;;;;;;35.03;22.55;;;;;;;;;;6219840;28;20093;-66
2021/12/19 12:54:15;;;;;;;34.97;22.88;;;;;;;;;;6228201;28;20068;-67
2021/12/19 12:57:16;;;;;;;33.08;21.63;;;;;;;;;;6224716;28;20061;-65
2021/12/19 13:00:19;;;;;;;35.20;21.52;;;;;;;;;;6230086;28;20052;-66
2021/12/19 13:03:30;;;;;;;34.70;22.40;;;;;;;;;;6231532;28;20052;-66
2021/12/19 13:06:39;;;;;;;35.25;21.38;;;;;;;;;;6220071;28;20061;-66
2021/12/19 13:09:44;;;;;;;35.90;21.45;;;;;;;;;;6234578;28;20041;-66
2021/12/19 13:12:47;;;;;;;35.45;21.23;;;;;;;;;;6222126;28;20517;-66
2021/12/19 13:15:48;;;;;;;37.55;21.65;;;;;;;;;;6222819;28;20053;-67
2021/12/19 13:18:50;;;;;;;35.78;21.35;;;;;;;;;;6235015;28;20053;-66
2021/12/19 13:21:55;;;;;;;35.67;20.70;;;;;;;;;;6242509;28;20091;-66
2021/12/19 13:25:01;;;;;;;35.13;21.02;;;;;;;;;;6236328;28;20049;-66
2021/12/19 13:28:05;;;;;;;35.47;20.98;;;;;;;;;;6223692;28;20081;-66
2021/12/19 13:31:07;;;;;;;38.45;21.48;;;;;;;;;;6221925;28;20052;-66
2021/12/19 13:34:13;;;;;;;37.67;20.90;;;;;;;;;;6231339;28;20049;-66
2021/12/19 13:37:15;;;;;;;37.40;20.52;;;;;;;;;;6220198;28;20048;-67
2021/12/19 13:40:18;;;;;;;35.38;20.48;;;;;;;;;;6228178;28;20247;-67
2021/12/19 13:43:21;;;;;;;36.72;20.90;;;;;;;;;;6227040;28;20135;-67
2021/12/19 13:46:23;;;;;;;34.07;20.03;;;;;;;;;;6219452;28;20058;-67
2021/12/19 13:49:25;;;;;;;34.88;22.50;;;;;;;;;;6230252;28;20045;-67
2021/12/19 13:52:26;;;;;;;42.80;22.83;;;;;;;;;;6226138;28;20075;-67
2021/12/19 13:55:40;;;;;;;30.10;18.17;;;;;;;;;;6222256;28;20033;-67
2021/12/19 13:58:44;;;;;;;34.45;20.77;;;;;;;;;;6231215;28;20407;-66
2021/12/19 14:01:45;;;;;;;36.45;20.02;;;;;;;;;;6215828;28;20133;-66
2021/12/19 14:04:47;;;;;;;35.42;20.42;;;;;;;;;;6226531;28;20084;-67
2021/12/19 14:07:48;;;;;;;41.42;21.10;;;;;;;;;;6216301;28;20120;-66
2021/12/19 14:11:16;;;;;;;34.22;21.75;;;;;;;;;;6215502;28;20120;-67
2021/12/19 14:14:26;;;;;;;34.63;21.05;;;;;;;;;;6225615;28;20486;-66
2021/12/19 14:17:30;;;;;;;34.70;20.65;;;;;;;;;;6211168;28;20081;-67
2021/12/19 14:20:35;;;;;;;37.03;20.60;;;;;;;;;;6225246;28;20569;-67
2021/12/19 14:23:39;;;;;;;41.38;21.80;;;;;;;;;;6233864;28;20046;-66
2021/12/19 14:26:43;;;;;;;41.88;21.80;;;;;;;;;;6225783;28;20050;-66
2021/12/19 14:29:47;;;;;;;33.47;20.55;;;;;;;;;;6229090;28;20045;-66
2021/12/19 14:32:51;;;;;;;41.22;21.55;;;;;;;;;;6213306;28;20746;-67
2021/12/19 14:35:53;;;;;;;41.42;20.27;;;;;;;;;;6225283;28;20540;-66
2021/12/19 14:39:00;;;;;;;34.40;20.10;;;;;;;;;;6229961;28;20058;-66
2021/12/19 14:42:12;;;;;;;34.65;19.38;;;;;;;;;;6218515;28;21426;-66
2021/12/19 14:45:19;;;;;;;37.90;19.52;;;;;;;;;;6221193;28;20103;-66
2021/12/19 14:48:29;;;;;;;36.38;19.83;;;;;;;;;;6215952;28;20444;-67
2021/12/19 14:51:31;;;;;;;35.97;20.15;;;;;;;;;;6223538;28;20497;-65
2021/12/19 14:54:33;;;;;;;39.60;20.42;;;;;;;;;;6229276;28;20065;-66
2021/12/19 14:57:36;;;;;;;36.13;19.02;;;;;;;;;;6222790;28;20038;-67
2021/12/19 15:00:39;;;;;;;41.03;20.33;;;;;;;;;;6219915;28;20057;-66
2021/12/19 15:03:47;;;;;;;35.10;18.80;;;;;;;;;;6224183;28;20045;-66
2021/12/19 15:06:58;;;;;;;36.22;19.55;;;;;;;;;;6230337;28;20493;-67
2021/12/19 15:09:59;;;;;;;35.83;20.35;;;;;;;;;;6235095;28;20137;-66
2021/12/19 15:13:02;;;;;;;37.45;20.90;;;;;;;;;;6219821;28;20049;-66
2021/12/19 15:16:05;;;;;;;35.55;19.45;;;;;;;;;;6213783;28;20532;-66
2021/12/19 15:19:08;;;;;;;34.55;20.15;;;;;;;;;;6226926;28;20042;-66
2021/12/19 15:22:10;;;;;;;32.00;19.10;;;;;;;;;;6228574;28;20586;-66
2021/12/19 15:25:12;;;;;;;31.02;19.58;;;;;;;;;;6222895;28;20084;-66
2021/12/19 15:28:17;;;;;;;33.25;18.73;;;;;;;;;;6224363;28;20066;-66
2021/12/19 15:31:20;;;;;;;32.53;19.30;;;;;;;;;;6207292;28;20050;-66
2021/12/19 15:34:22;;;;;;;35.57;18.17;;;;;;;;;;6226279;28;20076;-66
2021/12/19 15:37:23;;;;;;;35.13;19.58;;;;;;;;;;6216886;28;20049;-66
2021/12/19 15:40:25;;;;;;;35.08;19.27;;;;;;;;;;6227624;28;20038;-67
2021/12/19 15:43:28;;;;;;;34.80;19.25;;;;;;;;;;6236254;28;20055;-66
2021/12/19 15:46:30;;;;;;;38.38;19.92;;;;;;;;;;6209725;28;20488;-66
2021/12/19 15:49:33;;;;;;;39.42;20.20;;;;;;;;;;6222235;28;20095;-66
2021/12/19 15:52:34;;;;;;;38.97;21.92;;;;;;;;;;6223776;28;20505;-66
2021/12/19 15:55:37;;;;;;;35.25;21.67;;;;;;;;;;6218128;28;20107;-66
2021/12/19 15:58:40;;;;;;;39.33;20.42;;;;;;;;;;6220825;28;20046;-66
2021/12/19 16:01:42;;;;;;;41.15;21.20;;;;;;;;;;6214763;28;20490;-66
2021/12/19 16:04:44;;;;;;;37.25;20.33;;;;;;;;;;6241669;28;22213;-66
2021/12/19 16:07:45;;;;;;;44.85;21.27;;;;;;;;;;6215441;28;20117;-66
2021/12/19 16:10:47;;;;;;;41.45;21.58;;;;;;;;;;6214123;28;20049;-66
2021/12/19 16:13:50;;;;;;;43.38;21.83;;;;;;;;;;6227906;28;20054;-66
2021/12/19 16:16:51;;;;;;;40.03;20.50;;;;;;;;;;6205054;28;20108;-66
2021/12/19 16:19:53;;;;;;;37.08;19.70;;;;;;;;;;6225069;28;20049;-66
2021/12/19 16:22:55;;;;;;;38.92;20.15;;;;;;;;;;6208561;28;20049;-66
2021/12/19 16:25:56;;;;;;;42.58;20.10;;;;;;;;;;6218550;28;20120;-65
2021/12/19 16:28:59;;;;;;;38.05;20.58;;;;;;;;;;6239258;28;20127;-66
2021/12/19 16:32:01;;;;;;;36.65;20.00;;;;;;;;;;6211186;28;20049;-66
2021/12/19 16:35:03;;;;;;;44.55;21.48;;;;;;;;;;6232750;28;20053;-66
2021/12/19 16:38:05;;;;;;;37.20;20.60;;;;;;;;;;6216087;28;20473;-66
2021/12/19 16:41:08;;;;;;;37.15;20.42;;;;;;;;;;6215422;28;20042;-66
2021/12/19 16:44:12;;;;;;;43.65;21.33;;;;;;;;;;6229619;28;20052;-66
2021/12/19 16:47:14;;;;;;;41.40;20.07;;;;;;;;;;6201520;28;20552;-66
2021/12/19 16:50:15;;;;;;;40.50;20.65;;;;;;;;;;6211367;28;20138;-66
2021/12/19 16:53:17;;;;;;;40.33;21.42;;;;;;;;;;6220173;28;20038;-66
2021/12/19 16:56:19;;;;;;;42.40;20.92;;;;;;;;;;6214881;28;20179;-67
2021/12/19 16:59:22;;;;;;;43.70;21.42;;;;;;;;;;6235316;28;20053;-66
2021/12/19 17:02:24;;;;;;;41.80;20.92;;;;;;;;;;6206748;28;20049;-66
2021/12/19 17:05:26;;;;;;;46.38;20.77;;;;;;;;;;6222753;28;20468;-66
2021/12/19 17:08:28;;;;;;;44.25;19.88;;;;;;;;;;6219850;28;20053;-67
2021/12/19 17:11:34;;;;;;;45.50;21.15;;;;;;;;;;6214294;28;20136;-66
2021/12/19 17:14:37;;;;;;;44.75;21.52;;;;;;;;;;6225276;28;20170;-66
2021/12/19 17:17:39;;;;;;;43.30;19.95;;;;;;;;;;6199652;28;20148;-66
2021/12/19 17:20:41;;;;;;;46.53;20.02;;;;;;;;;;6211335;28;20120;-66
2021/12/19 17:23:44;;;;;;;39.40;19.67;;;;;;;;;;6227565;28;20048;-66
2021/12/19 17:26:48;;;;;;;39.80;20.83;;;;;;;;;;6214066;28;20687;-66
2021/12/19 17:29:50;;;;;;;41.40;20.47;;;;;;;;;;6225616;28;20185;-66
2021/12/19 17:32:52;;;;;;;40.67;20.83;;;;;;;;;;6206461;28;20495;-66
2021/12/19 17:35:54;;;;;;;40.13;20.58;;;;;;;;;;6229275;28;20115;-65
2021/12/19 17:38:57;;;;;;;47.40;22.88;;;;;;;;;;6229490;28;20123;-66
2021/12/19 17:42:02;;;;;;;41.25;21.25;;;;;;;;;;6215901;28;20046;-65
2021/12/19 17:45:06;;;;;;;42.97;21.90;;;;;;;;;;6235431;28;20318;-66
2021/12/19 17:48:07;;;;;;;35.83;19.45;;;;;;;;;;6206736;28;20057;-66
2021/12/19 17:51:10;;;;;;;38.42;19.65;;;;;;;;;;6212411;28;20127;-66
2021/12/19 17:54:12;;;;;;;45.63;21.70;;;;;;;;;;6225177;28;20184;-66
2021/12/19 17:57:13;;;;;;;42.63;21.52;;;;;;;;;;6221343;28;20041;-66
2021/12/19 18:00:18;;;;;;;42.05;19.75;;;;;;;;;;6210442;28;20099;-66
2021/12/19 18:03:19;;;;;;;40.50;20.52;;;;;;;;;;6214077;28;20128;-66
2021/12/19 18:06:21;;;;;;;43.08;21.30;;;;;;;;;;6212518;28;20136;-66
2021/12/19 18:09:22;;;;;;;46.50;21.45;;;;;;;;;;6221001;28;20104;-66
2021/12/19 18:12:24;;;;;;;40.63;21.05;;;;;;;;;;6207424;28;20060;-66
2021/12/19 18:15:29;;;;;;;42.08;19.58;;;;;;;;;;6209925;28;20258;-66
2021/12/19 18:18:30;;;;;;;38.80;19.05;;;;;;;;;;6224461;28;20133;-66
2021/12/19 18:21:32;;;;;;;38.22;20.05;;;;;;;;;;6220006;28;20045;-66
2021/12/19 18:24:34;;;;;;;38.08;20.58;;;;;;;;;;6233275;28;20170;-66
2021/12/19 18:27:35;;;;;;;36.67;20.70;;;;;;;;;;6216766;28;20050;-66
2021/12/19 18:30:40;;;;;;;37.22;20.75;;;;;;;;;;6203568;28;20042;-66
2021/12/19 18:33:46;;;;;;;35.92;21.27;;;;;;;;;;6227781;28;20049;-66
2021/12/19 18:36:51;;;;;;;37.78;22.27;;;;;;;;;;6223391;28;20125;-66